Flight Track Log - Related Links

Times and Time Zones

All times are in EDT time to prevent confusion due to time zone crossing. See the SKW5550 flight status page for this flight to view local times or setup timezone preferences in your user account.

Time Position Orientation Groundspeed Altitude Reporting Facility
EDT Latitude Longitude Course Direction KTS MPH feet Rate Location/Type
Fri 09:32:07 AM 44.5392 -108.9936 160° South 165 190 6,400  Level Salt Lake Center
Fri 09:33:00 AM 44.3391 -108.8389 159° South  Level Estimated
Fri 09:33:08 AM 44.5900 -108.9736 16° North 199 229 8,300  Level Salt Lake Center
Fri 09:34:00 AM 44.2485 -108.7469 157° South  Level Estimated
Fri 09:34:09 AM 44.6219 -108.9083 55° Northeast 238 274 11,200  Level Salt Lake Center
Fri 09:35:00 AM 44.1452 -108.6864 157° South  Level FlightAware Approximate
Fri 09:35:10 AM 44.5508 -108.8817 165° South 283 326 12,800  Level Salt Lake Center
Fri 09:36:00 AM 44.0547 -108.5943 157° South  Level Estimated
Fri 09:36:11 AM 44.4589 -108.8733 176° South 326 375 14,500  Level Salt Lake Center
Fri 09:37:00 AM 43.9494 -108.5412 160° South  Level FlightAware Approximate
Fri 09:37:12 AM 44.3667 -108.8192 157° South 358 412 16,600  Level Salt Lake Center
Fri 09:38:13 AM 44.2750 -108.7669 158° South 360 414 18,900 1,967 Climbing Salt Lake Center
Fri 09:39:14 AM 44.1861 -108.7011 152° Southeast 362 417 20,600 1,721 Climbing Salt Lake Center
Fri 09:40:15 AM 44.0831 -108.6000 145° Southeast 375 432 22,400 1,525 Climbing Salt Lake Center
Fri 09:41:16 AM 43.9961 -108.5181 146° Southeast 380 437 23,700 1,328 Climbing Salt Lake Center
Fri 09:42:17 AM 43.9069 -108.4356 146° Southeast 386 444 25,100 1,180 Climbing Salt Lake Center
Fri 09:43:18 AM 43.8183 -108.3533 146° Southeast 385 443 26,100 1,082 Climbing Salt Lake Center
Fri 09:44:19 AM 43.7281 -108.2681 146° Southeast 392 451 27,300 976 Climbing Salt Lake Center
Fri 09:45:21 AM 43.6361 -108.1817 146° Southeast 399 459 28,100 780 Climbing Salt Lake Center
Fri 09:46:22 AM 43.5428 -108.0978 147° Southeast 401 461 28,900 885 Climbing Salt Lake Center
Fri 09:47:23 AM 43.4506 -108.0106 146° Southeast 403 464 29,900 1,033 Climbing Salt Lake Center
Fri 09:48:24 AM 43.3592 -107.9272 146° Southeast 397 457 31,000 541 Climbing Salt Lake Center
Fri 09:49:25 AM 43.2472 -107.8261 147° Southeast 402 463 31,000  Level Salt Lake Center
Fri 09:50:26 AM 43.1517 -107.7375 146° Southeast 412 474 31,000  Level Salt Lake Center
Fri 09:51:28 AM 43.0561 -107.6500 146° Southeast 416 479 31,000  Level Salt Lake Center
Fri 09:52:29 AM 42.9619 -107.5611 145° Southeast 414 476 31,000  Level Salt Lake Center
Fri 09:53:30 AM 42.8647 -107.4722 146° Southeast 407 468 31,000  Level Salt Lake Center
Fri 09:54:31 AM 42.7758 -107.3897 146° Southeast 405 466 31,000  Level Salt Lake Center
Fri 09:55:35 AM 42.6728 -107.2950 146° Southeast 403 464 31,000  Level Denver Center
Fri 09:56:36 AM 42.5825 -107.2106 145° Southeast 406 467 31,000  Level Denver Center
Fri 09:57:37 AM 42.4778 -107.1133 146° Southeast 409 471 31,000  Level Denver Center
Fri 09:58:38 AM 42.3875 -107.0300 146° Southeast 408 470 31,000  Level Denver Center
Fri 09:59:39 AM 42.2967 -106.9464 146° Southeast 411 473 31,000  Level Denver Center
Fri 10:00:41 AM 42.1900 -106.8483 146° Southeast 413 475 31,000  Level Denver Center
Fri 10:01:42 AM 42.0997 -106.7669 146° Southeast 409 471 31,000  Level Denver Center
Fri 10:02:43 AM 42.0069 -106.6831 146° Southeast 415 478 31,000  Level Denver Center
Fri 10:03:45 AM 41.9011 -106.5864 146° Southeast 413 475 31,000  Level Denver Center
Fri 10:04:46 AM 41.8111 -106.5058 146° Southeast 416 479 31,000  Level Denver Center
Fri 10:05:47 AM 41.7064 -106.4117 146° Southeast 409 471 31,000  Level Denver Center
Fri 10:06:48 AM 41.6150 -106.3289 146° Southeast 413 475 31,000 -390 Level Denver Center
Fri 10:07:50 AM 41.5058 -106.2331 147° Southeast 419 482 30,200 -1,073 Descending Denver Center
Fri 10:08:51 AM 41.4106 -106.1481 146° Southeast 429 494 28,800 -1,131 Descending Denver Center
Fri 10:09:52 AM 41.3150 -106.0636 146° Southeast 431 496 27,900 -780 Descending Denver Center
Fri 10:10:54 AM 41.2072 -105.9658 146° Southeast 424 488 27,200 -439 Descending Denver Center
Fri 10:11:55 AM 41.1153 -105.8875 147° Southeast 414 476 27,000 -98 Descending Denver Center
Fri 10:12:57 AM 41.0111 -105.7947 146° Southeast 413 475 27,000  Level Denver Center
Fri 10:13:58 AM 40.9158 -105.7142 147° Southeast 408 470 27,000  Level Denver Center
Fri 10:15:00 AM 40.8214 -105.6297 146° Southeast 410 472 27,000 -49 Level Denver Center
Fri 10:16:01 AM 40.7242 -105.5461 147° Southeast 415 478 26,900 -976 Descending Denver Center
Fri 10:17:03 AM 40.6308 -105.4636 146° Southeast 408 470 25,000 -1,790 Descending Denver Center
Fri 10:18:05 AM 40.5622 -105.3636 132° Southeast 376 433 23,200 -1,902 Descending Denver Center
Fri 10:19:06 AM 40.4903 -105.2378 127° Southeast 360 414 21,100 -1,805 Descending Denver Center
Fri 10:20:08 AM 40.4056 -105.1678 148° Southeast 363 418 19,500 -1,597 Descending Denver Center
Fri 10:21:10 AM 40.3297 -105.0850 140° Southeast 357 411 17,800 -1,610 Descending Denver Center
Fri 10:22:11 AM 40.2472 -104.9989 141° Southeast 354 407 16,200 -1,512 Descending Denver Center
Fri 10:23:13 AM 40.1692 -104.9147 141° Southeast 363 418 14,700 -1,452 Descending Denver Center
Fri 10:24:15 AM 40.0925 -104.8344 141° Southeast 355 409 13,200 -823 Descending Denver Center
Fri 10:25:17 AM 40.0128 -104.7494 141° Southeast 346 398 13,000 -387 Descending Denver Center
Fri 10:26:19 AM 39.9539 -104.6744 136° Southeast 299 344 12,400 -962 Descending Denver Center
Fri 10:27:03 AM 39.9500 -104.6000 94° East 270 311 11,300 -808 Descending Denver TRACON
Fri 10:28:03 AM 39.9500 -104.5000 90° East 247 284 11,000 -605 Descending Denver TRACON
Fri 10:29:02 AM 39.9500 -104.4167 90° East 236 272 10,100 -1,221 Descending Denver TRACON
Fri 10:29:56 AM 39.9500 -104.3500 90° East 244 281 8,700 -1,429 Descending Denver TRACON
Fri 10:30:26 AM 39.9261 -104.3111 129° Southeast 251 289 8,100 -457 Descending Denver Center
Fri 10:31:28 AM 39.8675 -104.3225 188° South 231 266 8,000 -48 Descending Denver Center
Fri 10:32:30 AM 39.8736 -104.3967 276° West 215 247 8,000 -339 Level Denver Center
Fri 10:33:32 AM 39.8761 -104.4811 272° West 210 242 7,300 -735 Descending Denver Center
Fri 10:34:08 AM 39.8833 -104.5167 285° West 179 206 6,800 -813 Descending Denver TRACON
Fri 10:35:08 AM 39.8833 -104.5833 270° West 154 177 6,000 -600 Descending Denver TRACON
Fri 10:36:38 AM 39.8769 -104.6433 262° West 135 155 5,300 -467 Descending Denver Center

Login

Don't have an account? Register now (free) for customized features, flight alerts, and more!